sensor_id;sensor_type;location;lat;lon;timestamp;temperature;humidity
22974;DHT22;11653;50.848;4.584;2023-07-29T00:00:46;21.10;99.90
22974;DHT22;11653;50.848;4.584;2023-07-29T00:03:11;21.10;99.90
22974;DHT22;11653;50.848;4.584;2023-07-29T00:05:37;21.00;99.90
22974;DHT22;11653;50.848;4.584;2023-07-29T00:08:03;21.10;99.90
22974;DHT22;11653;50.848;4.584;2023-07-29T00:10:35;21.00;99.90
22974;DHT22;11653;50.848;4.584;2023-07-29T00:13:01;21.00;99.90
22974;DHT22;11653;50.848;4.584;2023-07-29T00:15:27;21.00;99.90
22974;DHT22;11653;50.848;4.584;2023-07-29T00:17:52;20.90;99.90
22974;DHT22;11653;50.848;4.584;2023-07-29T00:20:18;20.80;99.90
22974;DHT22;11653;50.848;4.584;2023-07-29T00:22:44;20.80;99.90
22974;DHT22;11653;50.848;4.584;2023-07-29T00:25:09;20.80;99.90
22974;DHT22;11653;50.848;4.584;2023-07-29T00:27:35;20.70;99.90
22974;DHT22;11653;50.848;4.584;2023-07-29T00:30:00;20.70;99.90
22974;DHT22;11653;50.848;4.584;2023-07-29T00:32:29;20.50;99.90
22974;DHT22;11653;50.848;4.584;2023-07-29T00:34:54;20.40;99.90
22974;DHT22;11653;50.848;4.584;2023-07-29T00:37:21;20.20;99.90
22974;DHT22;11653;50.848;4.584;2023-07-29T00:39:46;20.10;99.90
22974;DHT22;11653;50.848;4.584;2023-07-29T00:42:12;20.00;99.90
22974;DHT22;11653;50.848;4.584;2023-07-29T00:44:38;19.90;99.90
22974;DHT22;11653;50.848;4.584;2023-07-29T00:47:05;19.90;99.90
22974;DHT22;11653;50.848;4.584;2023-07-29T00:49:31;19.90;99.90
22974;DHT22;11653;50.848;4.584;2023-07-29T00:51:58;19.90;99.90
22974;DHT22;11653;50.848;4.584;2023-07-29T00:54:23;19.90;99.90
22974;DHT22;11653;50.848;4.584;2023-07-29T00:56:49;19.80;99.90
22974;DHT22;11653;50.848;4.584;2023-07-29T00:59:15;19.70;99.90
22974;DHT22;11653;50.848;4.584;2023-07-29T01:01:41;19.80;99.90
22974;DHT22;11653;50.848;4.584;2023-07-29T01:04:07;19.80;99.90
22974;DHT22;11653;50.848;4.584;2023-07-29T01:06:34;19.70;99.90
22974;DHT22;11653;50.848;4.584;2023-07-29T01:09:12;19.70;99.90
22974;DHT22;11653;50.848;4.584;2023-07-29T01:12:01;19.60;99.90
22974;DHT22;11653;50.848;4.584;2023-07-29T01:14:51;19.60;99.90
22974;DHT22;11653;50.848;4.584;2023-07-29T01:17:29;19.60;99.90
22974;DHT22;11653;50.848;4.584;2023-07-29T01:20:06;19.50;99.90
22974;DHT22;11653;50.848;4.584;2023-07-29T01:22:34;19.50;99.90
22974;DHT22;11653;50.848;4.584;2023-07-29T01:25:00;19.40;99.90
22974;DHT22;11653;50.848;4.584;2023-07-29T01:27:26;19.40;99.90
22974;DHT22;11653;50.848;4.584;2023-07-29T01:29:56;19.40;99.90
22974;DHT22;11653;50.848;4.584;2023-07-29T01:35:33;19.50;99.90
22974;DHT22;11653;50.848;4.584;2023-07-29T01:38:14;19.40;99.90
22974;DHT22;11653;50.848;4.584;2023-07-29T01:40:42;19.40;99.90
22974;DHT22;11653;50.848;4.584;2023-07-29T01:43:10;19.50;99.90
22974;DHT22;11653;50.848;4.584;2023-07-29T01:45:36;19.50;99.90
22974;DHT22;11653;50.848;4.584;2023-07-29T01:48:07;19.40;99.90
22974;DHT22;11653;50.848;4.584;2023-07-29T01:50:33;19.30;99.90
22974;DHT22;11653;50.848;4.584;2023-07-29T01:52:59;19.30;99.90
22974;DHT22;11653;50.848;4.584;2023-07-29T01:55:24;19.30;99.90
22974;DHT22;11653;50.848;4.584;2023-07-29T01:57:50;19.30;99.90
22974;DHT22;11653;50.848;4.584;2023-07-29T02:00:18;19.40;99.90
22974;DHT22;11653;50.848;4.584;2023-07-29T02:02:44;19.40;99.90
22974;DHT22;11653;50.848;4.584;2023-07-29T02:05:10;19.30;99.90
22974;DHT22;11653;50.848;4.584;2023-07-29T02:07:36;19.40;99.90
22974;DHT22;11653;50.848;4.584;2023-07-29T02:10:01;19.40;99.90
22974;DHT22;11653;50.848;4.584;2023-07-29T02:12:27;19.40;99.90
22974;DHT22;11653;50.848;4.584;2023-07-29T02:14:53;19.40;99.90
22974;DHT22;11653;50.848;4.584;2023-07-29T02:17:18;19.40;99.90
22974;DHT22;11653;50.848;4.584;2023-07-29T02:19:44;19.30;99.90
22974;DHT22;11653;50.848;4.584;2023-07-29T02:22:13;19.30;99.90
22974;DHT22;11653;50.848;4.584;2023-07-29T02:24:39;19.30;99.90
22974;DHT22;11653;50.848;4.584;2023-07-29T02:27:05;19.20;99.90
22974;DHT22;11653;50.848;4.584;2023-07-29T02:29:31;19.20;99.90
22974;DHT22;11653;50.848;4.584;2023-07-29T02:31:59;19.20;99.90
22974;DHT22;11653;50.848;4.584;2023-07-29T02:34:24;19.00;99.90
22974;DHT22;11653;50.848;4.584;2023-07-29T02:36:50;19.00;99.90
22974;DHT22;11653;50.848;4.584;2023-07-29T02:39:16;19.00;99.90
22974;DHT22;11653;50.848;4.584;2023-07-29T02:41:42;19.00;99.90
22974;DHT22;11653;50.848;4.584;2023-07-29T02:44:07;19.00;99.90
22974;DHT22;11653;50.848;4.584;2023-07-29T02:46:33;18.90;99.90
22974;DHT22;11653;50.848;4.584;2023-07-29T02:48:59;18.90;99.90
22974;DHT22;11653;50.848;4.584;2023-07-29T02:51:24;18.90;99.90
22974;DHT22;11653;50.848;4.584;2023-07-29T02:53:50;19.00;99.90
22974;DHT22;11653;50.848;4.584;2023-07-29T02:56:16;19.00;99.90
22974;DHT22;11653;50.848;4.584;2023-07-29T02:58:41;19.00;99.90
22974;DHT22;11653;50.848;4.584;2023-07-29T03:01:07;19.00;99.90
22974;DHT22;11653;50.848;4.584;2023-07-29T03:03:33;18.90;99.90
22974;DHT22;11653;50.848;4.584;2023-07-29T03:06:01;18.90;99.90
22974;DHT22;11653;50.848;4.584;2023-07-29T03:08:27;18.90;99.90
22974;DHT22;11653;50.848;4.584;2023-07-29T03:10:54;18.90;99.90
22974;DHT22;11653;50.848;4.584;2023-07-29T03:13:20;18.90;99.90
22974;DHT22;11653;50.848;4.584;2023-07-29T03:15:46;19.00;99.90
22974;DHT22;11653;50.848;4.584;2023-07-29T03:18:11;18.90;99.90
22974;DHT22;11653;50.848;4.584;2023-07-29T03:20:37;19.00;99.90
22974;DHT22;11653;50.848;4.584;2023-07-29T03:23:02;19.00;99.90
22974;DHT22;11653;50.848;4.584;2023-07-29T03:25:28;19.00;99.90
22974;DHT22;11653;50.848;4.584;2023-07-29T03:27:54;18.90;99.90
22974;DHT22;11653;50.848;4.584;2023-07-29T03:30:21;18.90;99.90
22974;DHT22;11653;50.848;4.584;2023-07-29T03:32:47;18.90;99.90
22974;DHT22;11653;50.848;4.584;2023-07-29T03:35:13;18.90;99.90
22974;DHT22;11653;50.848;4.584;2023-07-29T03:37:39;18.90;99.90
22974;DHT22;11653;50.848;4.584;2023-07-29T03:40:06;18.90;99.90
22974;DHT22;11653;50.848;4.584;2023-07-29T03:42:32;18.80;99.90
22974;DHT22;11653;50.848;4.584;2023-07-29T03:44:57;18.90;99.90
22974;DHT22;11653;50.848;4.584;2023-07-29T03:47:23;18.80;99.90
22974;DHT22;11653;50.848;4.584;2023-07-29T03:49:49;18.80;99.90
22974;DHT22;11653;50.848;4.584;2023-07-29T03:52:15;18.80;99.90
22974;DHT22;11653;50.848;4.584;2023-07-29T03:54:41;18.80;99.90
22974;DHT22;11653;50.848;4.584;2023-07-29T03:57:06;18.70;99.90
22974;DHT22;11653;50.848;4.584;2023-07-29T03:59:32;18.80;99.90
22974;DHT22;11653;50.848;4.584;2023-07-29T04:01:58;18.80;99.90
22974;DHT22;11653;50.848;4.584;2023-07-29T04:04:24;18.90;99.90
22974;DHT22;11653;50.848;4.584;2023-07-29T04:06:49;18.90;99.90
22974;DHT22;11653;50.848;4.584;2023-07-29T04:09:15;18.90;99.90
22974;DHT22;11653;50.848;4.584;2023-07-29T04:11:41;18.80;99.90
22974;DHT22;11653;50.848;4.584;2023-07-29T04:14:06;19.00;99.90
22974;DHT22;11653;50.848;4.584;2023-07-29T04:16:32;18.90;99.90
22974;DHT22;11653;50.848;4.584;2023-07-29T04:18:58;18.70;99.90
22974;DHT22;11653;50.848;4.584;2023-07-29T04:21:23;18.70;99.90
22974;DHT22;11653;50.848;4.584;2023-07-29T04:23:49;18.70;99.90
22974;DHT22;11653;50.848;4.584;2023-07-29T04:26:15;18.70;99.90
22974;DHT22;11653;50.848;4.584;2023-07-29T04:28:42;18.60;99.90
22974;DHT22;11653;50.848;4.584;2023-07-29T04:31:08;18.60;99.90
22974;DHT22;11653;50.848;4.584;2023-07-29T04:33:33;18.70;99.90
22974;DHT22;11653;50.848;4.584;2023-07-29T04:35:59;18.70;99.90
22974;DHT22;11653;50.848;4.584;2023-07-29T04:38:31;18.70;99.90
22974;DHT22;11653;50.848;4.584;2023-07-29T04:41:00;18.70;99.90
22974;DHT22;11653;50.848;4.584;2023-07-29T04:43:32;18.70;99.90
22974;DHT22;11653;50.848;4.584;2023-07-29T04:45:58;18.70;99.90
22974;DHT22;11653;50.848;4.584;2023-07-29T04:48:24;18.80;99.90
22974;DHT22;11653;50.848;4.584;2023-07-29T04:50:50;18.90;99.90
22974;DHT22;11653;50.848;4.584;2023-07-29T04:53:15;18.90;99.90
22974;DHT22;11653;50.848;4.584;2023-07-29T04:55:44;18.90;99.90
22974;DHT22;11653;50.848;4.584;2023-07-29T04:58:10;18.90;99.90
22974;DHT22;11653;50.848;4.584;2023-07-29T05:00:36;18.90;99.90
22974;DHT22;11653;50.848;4.584;2023-07-29T05:03:01;18.90;99.90
22974;DHT22;11653;50.848;4.584;2023-07-29T05:05:27;18.90;99.90
22974;DHT22;11653;50.848;4.584;2023-07-29T05:07:53;19.00;99.90
22974;DHT22;11653;50.848;4.584;2023-07-29T05:10:19;19.00;99.90
22974;DHT22;11653;50.848;4.584;2023-07-29T05:12:44;19.10;99.90
22974;DHT22;11653;50.848;4.584;2023-07-29T05:15:10;19.20;99.90
22974;DHT22;11653;50.848;4.584;2023-07-29T05:17:36;19.20;99.90
22974;DHT22;11653;50.848;4.584;2023-07-29T05:20:02;19.20;99.90
22974;DHT22;11653;50.848;4.584;2023-07-29T05:22:28;19.20;99.90
22974;DHT22;11653;50.848;4.584;2023-07-29T05:24:54;19.40;99.90
22974;DHT22;11653;50.848;4.584;2023-07-29T05:27:19;19.60;99.90
22974;DHT22;11653;50.848;4.584;2023-07-29T05:29:45;19.90;99.90
22974;DHT22;11653;50.848;4.584;2023-07-29T05:32:10;20.20;99.90
22974;DHT22;11653;50.848;4.584;2023-07-29T05:34:36;20.50;99.90
22974;DHT22;11653;50.848;4.584;2023-07-29T05:37:02;20.80;99.90
22974;DHT22;11653;50.848;4.584;2023-07-29T05:39:28;21.10;99.90
22974;DHT22;11653;50.848;4.584;2023-07-29T05:41:54;21.20;99.90
22974;DHT22;11653;50.848;4.584;2023-07-29T05:44:20;21.20;99.90
22974;DHT22;11653;50.848;4.584;2023-07-29T05:46:45;21.30;99.90
22974;DHT22;11653;50.848;4.584;2023-07-29T05:49:11;21.40;99.90
22974;DHT22;11653;50.848;4.584;2023-07-29T05:51:37;21.50;99.90
22974;DHT22;11653;50.848;4.584;2023-07-29T05:54:03;21.60;99.90
22974;DHT22;11653;50.848;4.584;2023-07-29T05:56:28;21.60;99.90
22974;DHT22;11653;50.848;4.584;2023-07-29T05:58:55;21.60;99.90
22974;DHT22;11653;50.848;4.584;2023-07-29T06:01:20;21.80;99.90
22974;DHT22;11653;50.848;4.584;2023-07-29T06:03:47;21.90;99.90
22974;DHT22;11653;50.848;4.584;2023-07-29T06:06:13;22.10;99.90
22974;DHT22;11653;50.848;4.584;2023-07-29T06:08:38;22.20;99.90
22974;DHT22;11653;50.848;4.584;2023-07-29T06:11:04;22.20;99.90
22974;DHT22;11653;50.848;4.584;2023-07-29T06:13:32;22.10;99.90
22974;DHT22;11653;50.848;4.584;2023-07-29T06:15:58;22.00;99.90
22974;DHT22;11653;50.848;4.584;2023-07-29T06:18:24;21.90;99.90
22974;DHT22;11653;50.848;4.584;2023-07-29T06:20:50;21.80;99.90
22974;DHT22;11653;50.848;4.584;2023-07-29T06:23:15;21.80;99.90
22974;DHT22;11653;50.848;4.584;2023-07-29T06:25:41;22.10;99.90
22974;DHT22;11653;50.848;4.584;2023-07-29T06:28:07;22.60;99.90
22974;DHT22;11653;50.848;4.584;2023-07-29T06:30:32;23.10;99.90
22974;DHT22;11653;50.848;4.584;2023-07-29T06:32:58;23.60;99.90
22974;DHT22;11653;50.848;4.584;2023-07-29T06:35:23;24.20;99.90
22974;DHT22;11653;50.848;4.584;2023-07-29T06:37:49;24.60;99.90
22974;DHT22;11653;50.848;4.584;2023-07-29T06:40:15;24.80;99.90
22974;DHT22;11653;50.848;4.584;2023-07-29T06:42:41;24.90;99.90
22974;DHT22;11653;50.848;4.584;2023-07-29T06:45:07;25.20;99.90
22974;DHT22;11653;50.848;4.584;2023-07-29T06:47:33;25.50;99.90
22974;DHT22;11653;50.848;4.584;2023-07-29T06:49:59;26.20;99.90
22974;DHT22;11653;50.848;4.584;2023-07-29T06:52:25;27.00;99.90
22974;DHT22;11653;50.848;4.584;2023-07-29T06:54:50;27.70;99.90
22974;DHT22;11653;50.848;4.584;2023-07-29T06:57:16;28.40;99.90
22974;DHT22;11653;50.848;4.584;2023-07-29T06:59:42;28.70;99.90
22974;DHT22;11653;50.848;4.584;2023-07-29T07:02:07;28.50;99.90
22974;DHT22;11653;50.848;4.584;2023-07-29T07:04:33;28.00;99.80
22974;DHT22;11653;50.848;4.584;2023-07-29T07:06:58;27.40;99.90
22974;DHT22;11653;50.848;4.584;2023-07-29T07:09:24;26.90;99.90
22974;DHT22;11653;50.848;4.584;2023-07-29T07:11:50;26.40;99.90
22974;DHT22;11653;50.848;4.584;2023-07-29T07:14:15;26.00;99.90
22974;DHT22;11653;50.848;4.584;2023-07-29T07:16:41;25.80;99.90
22974;DHT22;11653;50.848;4.584;2023-07-29T07:19:07;25.50;99.90
22974;DHT22;11653;50.848;4.584;2023-07-29T07:21:32;25.00;99.90
22974;DHT22;11653;50.848;4.584;2023-07-29T07:23:58;24.50;99.90
22974;DHT22;11653;50.848;4.584;2023-07-29T07:26:24;24.10;99.90
22974;DHT22;11653;50.848;4.584;2023-07-29T07:28:49;23.80;99.90
22974;DHT22;11653;50.848;4.584;2023-07-29T07:31:17;23.50;99.90
22974;DHT22;11653;50.848;4.584;2023-07-29T07:33:42;23.20;99.90
22974;DHT22;11653;50.848;4.584;2023-07-29T07:36:08;23.00;99.90
22974;DHT22;11653;50.848;4.584;2023-07-29T07:38:33;22.90;99.90
22974;DHT22;11653;50.848;4.584;2023-07-29T07:40:59;22.80;99.90
22974;DHT22;11653;50.848;4.584;2023-07-29T07:43:25;22.70;99.90
22974;DHT22;11653;50.848;4.584;2023-07-29T07:45:51;22.60;99.90
22974;DHT22;11653;50.848;4.584;2023-07-29T07:48:22;22.50;99.90
22974;DHT22;11653;50.848;4.584;2023-07-29T07:50:48;22.50;99.90
22974;DHT22;11653;50.848;4.584;2023-07-29T07:53:14;22.40;99.90
22974;DHT22;11653;50.848;4.584;2023-07-29T07:55:39;22.40;99.90
22974;DHT22;11653;50.848;4.584;2023-07-29T07:58:05;22.50;99.90
22974;DHT22;11653;50.848;4.584;2023-07-29T08:00:30;22.70;99.90
22974;DHT22;11653;50.848;4.584;2023-07-29T08:02:56;23.00;99.90
22974;DHT22;11653;50.848;4.584;2023-07-29T08:05:22;23.40;99.90
22974;DHT22;11653;50.848;4.584;2023-07-29T08:07:47;23.50;99.90
22974;DHT22;11653;50.848;4.584;2023-07-29T08:10:13;23.60;99.90
22974;DHT22;11653;50.848;4.584;2023-07-29T08:12:39;23.80;99.90
22974;DHT22;11653;50.848;4.584;2023-07-29T08:15:05;23.90;99.90
22974;DHT22;11653;50.848;4.584;2023-07-29T08:17:31;24.20;99.90
22974;DHT22;11653;50.848;4.584;2023-07-29T08:19:56;24.80;99.90
22974;DHT22;11653;50.848;4.584;2023-07-29T08:22:22;25.30;99.90
22974;DHT22;11653;50.848;4.584;2023-07-29T08:24:48;25.50;99.90
22974;DHT22;11653;50.848;4.584;2023-07-29T08:27:13;26.10;99.90
22974;DHT22;11653;50.848;4.584;2023-07-29T08:29:39;26.70;99.90
22974;DHT22;11653;50.848;4.584;2023-07-29T08:32:05;27.30;99.90
22974;DHT22;11653;50.848;4.584;2023-07-29T08:34:31;27.80;99.90
22974;DHT22;11653;50.848;4.584;2023-07-29T08:36:56;27.70;99.90
22974;DHT22;11653;50.848;4.584;2023-07-29T08:39:22;27.60;99.90
22974;DHT22;11653;50.848;4.584;2023-07-29T08:44:21;27.10;99.90
22974;DHT22;11653;50.848;4.584;2023-07-29T08:46:51;27.20;99.90
22974;DHT22;11653;50.848;4.584;2023-07-29T08:49:18;27.60;99.90
22974;DHT22;11653;50.848;4.584;2023-07-29T08:51:47;28.10;99.90
22974;DHT22;11653;50.848;4.584;2023-07-29T08:54:13;29.00;99.90
22974;DHT22;11653;50.848;4.584;2023-07-29T08:56:42;30.40;99.80
22974;DHT22;11653;50.848;4.584;2023-07-29T08:59:08;31.40;95.20
22974;DHT22;11653;50.848;4.584;2023-07-29T09:01:34;32.00;92.60
22974;DHT22;11653;50.848;4.584;2023-07-29T09:04:00;32.60;92.00
22974;DHT22;11653;50.848;4.584;2023-07-29T09:06:26;32.70;90.40
22974;DHT22;11653;50.848;4.584;2023-07-29T09:08:54;33.20;89.70
22974;DHT22;11653;50.848;4.584;2023-07-29T09:11:22;33.60;85.50
22974;DHT22;11653;50.848;4.584;2023-07-29T09:13:48;34.10;84.10
22974;DHT22;11653;50.848;4.584;2023-07-29T09:16:14;34.10;81.40
22974;DHT22;11653;50.848;4.584;2023-07-29T09:18:40;34.20;80.70
22974;DHT22;11653;50.848;4.584;2023-07-29T09:21:06;34.00;81.30
22974;DHT22;11653;50.848;4.584;2023-07-29T09:23:42;33.80;80.00
22974;DHT22;11653;50.848;4.584;2023-07-29T09:26:08;33.40;80.10
22974;DHT22;11653;50.848;4.584;2023-07-29T09:28:36;33.10;81.20
22974;DHT22;11653;50.848;4.584;2023-07-29T09:31:02;32.30;81.30
22974;DHT22;11653;50.848;4.584;2023-07-29T09:33:28;31.50;84.00
22974;DHT22;11653;50.848;4.584;2023-07-29T09:35:54;31.20;86.70
22974;DHT22;11653;50.848;4.584;2023-07-29T09:38:26;30.70;89.10
22974;DHT22;11653;50.848;4.584;2023-07-29T09:40:57;30.40;90.00
22974;DHT22;11653;50.848;4.584;2023-07-29T09:43:29;30.00;90.70
22974;DHT22;11653;50.848;4.584;2023-07-29T09:46:03;29.70;91.70
22974;DHT22;11653;50.848;4.584;2023-07-29T09:48:33;29.70;92.30
22974;DHT22;11653;50.848;4.584;2023-07-29T09:50:58;29.80;92.60
22974;DHT22;11653;50.848;4.584;2023-07-29T09:53:24;29.70;92.40
22974;DHT22;11653;50.848;4.584;2023-07-29T09:55:50;29.50;92.20
22974;DHT22;11653;50.848;4.584;2023-07-29T09:58:26;29.40;92.20
22974;DHT22;11653;50.848;4.584;2023-07-29T10:00:52;29.50;93.80
22974;DHT22;11653;50.848;4.584;2023-07-29T10:03:21;29.80;92.90
22974;DHT22;11653;50.848;4.584;2023-07-29T10:05:48;29.80;93.40
22974;DHT22;11653;50.848;4.584;2023-07-29T10:08:14;30.00;93.30
22974;DHT22;11653;50.848;4.584;2023-07-29T10:10:43;30.40;91.80
22974;DHT22;11653;50.848;4.584;2023-07-29T10:13:09;30.60;91.80
22974;DHT22;11653;50.848;4.584;2023-07-29T10:15:36;30.70;91.10
22974;DHT22;11653;50.848;4.584;2023-07-29T10:18:02;30.50;90.80
22974;DHT22;11653;50.848;4.584;2023-07-29T10:20:31;30.00;91.50
22974;DHT22;11653;50.848;4.584;2023-07-29T10:23:00;29.30;92.60
22974;DHT22;11653;50.848;4.584;2023-07-29T10:25:35;28.70;94.90
22974;DHT22;11653;50.848;4.584;2023-07-29T10:28:07;28.10;96.20
22974;DHT22;11653;50.848;4.584;2023-07-29T10:30:33;27.60;97.30
22974;DHT22;11653;50.848;4.584;2023-07-29T10:33:03;27.40;99.30
22974;DHT22;11653;50.848;4.584;2023-07-29T10:35:30;27.10;99.50
22974;DHT22;11653;50.848;4.584;2023-07-29T10:37:57;26.10;99.90
22974;DHT22;11653;50.848;4.584;2023-07-29T10:40:23;25.60;99.90
22974;DHT22;11653;50.848;4.584;2023-07-29T10:43:03;25.40;99.90
22974;DHT22;11653;50.848;4.584;2023-07-29T10:45:49;25.10;99.90
22974;DHT22;11653;50.848;4.584;2023-07-29T10:51:27;24.90;99.90
22974;DHT22;11653;50.848;4.584;2023-07-29T10:54:09;25.00;99.90
22974;DHT22;11653;50.848;4.584;2023-07-29T10:56:36;25.50;99.90
22974;DHT22;11653;50.848;4.584;2023-07-29T10:59:30;26.30;99.90
22974;DHT22;11653;50.848;4.584;2023-07-29T11:01:58;27.20;99.90
22974;DHT22;11653;50.848;4.584;2023-07-29T11:04:31;27.60;99.90
22974;DHT22;11653;50.848;4.584;2023-07-29T11:09:43;27.70;99.90
22974;DHT22;11653;50.848;4.584;2023-07-29T11:20:05;26.50;99.90
22974;DHT22;11653;50.848;4.584;2023-07-29T11:22:33;26.60;99.90
22974;DHT22;11653;50.848;4.584;2023-07-29T11:24:58;27.10;99.90
22974;DHT22;11653;50.848;4.584;2023-07-29T11:27:24;27.20;99.90
22974;DHT22;11653;50.848;4.584;2023-07-29T11:29:50;26.60;99.90
22974;DHT22;11653;50.848;4.584;2023-07-29T11:32:16;26.00;99.90
22974;DHT22;11653;50.848;4.584;2023-07-29T11:34:42;25.30;99.90
22974;DHT22;11653;50.848;4.584;2023-07-29T11:37:11;24.60;99.90
22974;DHT22;11653;50.848;4.584;2023-07-29T11:39:41;24.10;99.90
22974;DHT22;11653;50.848;4.584;2023-07-29T11:42:10;23.80;99.90
22974;DHT22;11653;50.848;4.584;2023-07-29T11:44:36;23.50;99.90
22974;DHT22;11653;50.848;4.584;2023-07-29T11:47:02;23.30;99.90
22974;DHT22;11653;50.848;4.584;2023-07-29T11:49:33;23.40;99.90
22974;DHT22;11653;50.848;4.584;2023-07-29T11:51:58;23.50;99.90
22974;DHT22;11653;50.848;4.584;2023-07-29T11:54:25;24.20;99.90
22974;DHT22;11653;50.848;4.584;2023-07-29T11:56:50;25.20;99.90
22974;DHT22;11653;50.848;4.584;2023-07-29T11:59:16;26.10;99.90
22974;DHT22;11653;50.848;4.584;2023-07-29T12:01:42;27.20;99.90
22974;DHT22;11653;50.848;4.584;2023-07-29T12:04:08;27.90;99.90
22974;DHT22;11653;50.848;4.584;2023-07-29T12:06:34;28.70;99.90
22974;DHT22;11653;50.848;4.584;2023-07-29T12:09:00;28.90;99.90
22974;DHT22;11653;50.848;4.584;2023-07-29T12:11:26;28.50;99.90
22974;DHT22;11653;50.848;4.584;2023-07-29T12:13:53;28.40;99.90
22974;DHT22;11653;50.848;4.584;2023-07-29T12:16:19;27.90;99.90
22974;DHT22;11653;50.848;4.584;2023-07-29T12:18:45;27.30;99.90
22974;DHT22;11653;50.848;4.584;2023-07-29T12:21:13;26.50;99.90
22974;DHT22;11653;50.848;4.584;2023-07-29T12:23:39;26.00;99.90
22974;DHT22;11653;50.848;4.584;2023-07-29T12:26:04;25.60;99.90
22974;DHT22;11653;50.848;4.584;2023-07-29T12:28:30;25.40;99.90
22974;DHT22;11653;50.848;4.584;2023-07-29T12:30:57;25.20;99.90
22974;DHT22;11653;50.848;4.584;2023-07-29T12:33:36;25.30;99.90
22974;DHT22;11653;50.848;4.584;2023-07-29T12:36:04;25.20;99.90
22974;DHT22;11653;50.848;4.584;2023-07-29T12:38:30;25.10;99.90
22974;DHT22;11653;50.848;4.584;2023-07-29T12:40:56;25.00;99.90
22974;DHT22;11653;50.848;4.584;2023-07-29T12:43:22;24.70;99.90
22974;DHT22;11653;50.848;4.584;2023-07-29T12:45:51;24.30;99.90
22974;DHT22;11653;50.848;4.584;2023-07-29T12:48:17;23.90;99.90
22974;DHT22;11653;50.848;4.584;2023-07-29T12:50:43;23.50;99.90
22974;DHT22;11653;50.848;4.584;2023-07-29T12:53:09;23.10;99.90
22974;DHT22;11653;50.848;4.584;2023-07-29T12:55:38;23.10;99.90
22974;DHT22;11653;50.848;4.584;2023-07-29T12:58:04;23.10;99.90
22974;DHT22;11653;50.848;4.584;2023-07-29T13:00:30;23.30;99.90
22974;DHT22;11653;50.848;4.584;2023-07-29T13:02:56;23.50;99.90
22974;DHT22;11653;50.848;4.584;2023-07-29T13:05:22;23.70;99.90
22974;DHT22;11653;50.848;4.584;2023-07-29T13:07:47;24.00;99.90
22974;DHT22;11653;50.848;4.584;2023-07-29T13:10:14;24.10;99.90
22974;DHT22;11653;50.848;4.584;2023-07-29T13:12:40;24.10;99.90
22974;DHT22;11653;50.848;4.584;2023-07-29T13:15:06;24.20;99.90
22974;DHT22;11653;50.848;4.584;2023-07-29T13:17:32;24.40;99.90
22974;DHT22;11653;50.848;4.584;2023-07-29T13:19:58;24.60;99.90
22974;DHT22;11653;50.848;4.584;2023-07-29T13:22:24;24.90;99.90
22974;DHT22;11653;50.848;4.584;2023-07-29T13:24:49;24.90;99.90
22974;DHT22;11653;50.848;4.584;2023-07-29T13:27:15;25.00;99.90
22974;DHT22;11653;50.848;4.584;2023-07-29T13:29:40;25.20;99.90
22974;DHT22;11653;50.848;4.584;2023-07-29T13:32:07;25.20;99.90
22974;DHT22;11653;50.848;4.584;2023-07-29T13:34:33;25.20;99.90
22974;DHT22;11653;50.848;4.584;2023-07-29T13:37:00;25.20;99.90
22974;DHT22;11653;50.848;4.584;2023-07-29T13:39:25;25.10;99.90
22974;DHT22;11653;50.848;4.584;2023-07-29T13:41:51;25.20;99.90
22974;DHT22;11653;50.848;4.584;2023-07-29T13:44:17;25.20;99.90
22974;DHT22;11653;50.848;4.584;2023-07-29T13:46:42;25.40;99.90
22974;DHT22;11653;50.848;4.584;2023-07-29T13:49:09;25.60;99.90
22974;DHT22;11653;50.848;4.584;2023-07-29T13:51:35;25.70;99.90
22974;DHT22;11653;50.848;4.584;2023-07-29T13:54:01;25.80;99.90
22974;DHT22;11653;50.848;4.584;2023-07-29T13:56:27;25.90;99.90
22974;DHT22;11653;50.848;4.584;2023-07-29T13:58:53;25.80;99.90
22974;DHT22;11653;50.848;4.584;2023-07-29T14:01:18;25.80;99.90
22974;DHT22;11653;50.848;4.584;2023-07-29T14:03:44;25.80;99.90
22974;DHT22;11653;50.848;4.584;2023-07-29T14:06:09;25.80;99.90
22974;DHT22;11653;50.848;4.584;2023-07-29T14:08:35;25.90;99.90
22974;DHT22;11653;50.848;4.584;2023-07-29T14:11:01;25.90;99.90
22974;DHT22;11653;50.848;4.584;2023-07-29T14:13:27;26.00;99.90
22974;DHT22;11653;50.848;4.584;2023-07-29T14:15:52;26.10;99.90
22974;DHT22;11653;50.848;4.584;2023-07-29T14:18:18;25.90;99.90
22974;DHT22;11653;50.848;4.584;2023-07-29T14:20:43;26.00;99.90
22974;DHT22;11653;50.848;4.584;2023-07-29T14:23:09;25.90;99.90
22974;DHT22;11653;50.848;4.584;2023-07-29T14:25:35;26.00;99.90
22974;DHT22;11653;50.848;4.584;2023-07-29T14:28:01;26.20;99.90
22974;DHT22;11653;50.848;4.584;2023-07-29T14:30:26;26.20;99.90
22974;DHT22;11653;50.848;4.584;2023-07-29T14:32:52;26.20;99.90
22974;DHT22;11653;50.848;4.584;2023-07-29T14:35:18;26.10;99.90
22974;DHT22;11653;50.848;4.584;2023-07-29T14:37:43;26.00;99.90
22974;DHT22;11653;50.848;4.584;2023-07-29T14:40:09;25.90;99.90
22974;DHT22;11653;50.848;4.584;2023-07-29T14:42:34;26.00;99.90
22974;DHT22;11653;50.848;4.584;2023-07-29T14:45:00;26.10;99.90
22974;DHT22;11653;50.848;4.584;2023-07-29T14:47:26;26.10;99.90
22974;DHT22;11653;50.848;4.584;2023-07-29T14:49:51;25.80;99.90
22974;DHT22;11653;50.848;4.584;2023-07-29T14:52:17;25.70;99.90
22974;DHT22;11653;50.848;4.584;2023-07-29T14:54:43;25.60;99.90
22974;DHT22;11653;50.848;4.584;2023-07-29T14:57:10;25.60;99.90
22974;DHT22;11653;50.848;4.584;2023-07-29T14:59:35;25.50;99.90
22974;DHT22;11653;50.848;4.584;2023-07-29T15:02:01;25.50;99.90
22974;DHT22;11653;50.848;4.584;2023-07-29T15:04:27;25.50;99.90
22974;DHT22;11653;50.848;4.584;2023-07-29T15:06:52;25.50;99.90
22974;DHT22;11653;50.848;4.584;2023-07-29T15:09:18;25.50;99.90
22974;DHT22;11653;50.848;4.584;2023-07-29T15:11:43;25.60;99.90
22974;DHT22;11653;50.848;4.584;2023-07-29T15:14:09;25.70;99.90
22974;DHT22;11653;50.848;4.584;2023-07-29T15:16:35;25.70;99.90
22974;DHT22;11653;50.848;4.584;2023-07-29T15:19:02;25.60;99.90
22974;DHT22;11653;50.848;4.584;2023-07-29T15:21:28;25.50;99.90
22974;DHT22;11653;50.848;4.584;2023-07-29T15:23:54;25.30;99.90
22974;DHT22;11653;50.848;4.584;2023-07-29T15:26:20;25.30;99.90
22974;DHT22;11653;50.848;4.584;2023-07-29T15:28:45;25.30;99.90
22974;DHT22;11653;50.848;4.584;2023-07-29T15:31:13;25.40;99.90
22974;DHT22;11653;50.848;4.584;2023-07-29T15:33:38;25.60;99.90
22974;DHT22;11653;50.848;4.584;2023-07-29T15:36:04;25.70;99.90
22974;DHT22;11653;50.848;4.584;2023-07-29T15:38:30;25.50;99.90
22974;DHT22;11653;50.848;4.584;2023-07-29T15:40:56;25.40;99.90
22974;DHT22;11653;50.848;4.584;2023-07-29T15:43:22;25.40;99.90
22974;DHT22;11653;50.848;4.584;2023-07-29T15:45:49;25.20;99.90